sensor_id;sensor_type;location;lat;lon;timestamp;pressure;altitude;pressure_sealevel;temperature;humidity
77572;BME280;67214;47.454;18.966;2023-04-22T00:00:34;100027.13;;;8.79;66.74
77572;BME280;67214;47.454;18.966;2023-04-22T00:03:03;100027.09;;;8.73;67.27
77572;BME280;67214;47.454;18.966;2023-04-22T00:05:30;100034.05;;;8.69;67.14
77572;BME280;67214;47.454;18.966;2023-04-22T00:07:58;100031.74;;;8.59;67.25
77572;BME280;67214;47.454;18.966;2023-04-22T00:10:26;100031.75;;;8.64;67.74
77572;BME280;67214;47.454;18.966;2023-04-22T00:12:54;100033.67;;;8.62;66.96
77572;BME280;67214;47.454;18.966;2023-04-22T00:15:21;100032.69;;;8.58;67.30
77572;BME280;67214;47.454;18.966;2023-04-22T00:17:49;100046.28;;;8.59;67.85
77572;BME280;67214;47.454;18.966;2023-04-22T00:20:21;100038.35;;;8.59;68.52
77572;BME280;67214;47.454;18.966;2023-04-22T00:22:49;100039.02;;;8.50;68.52
77572;BME280;67214;47.454;18.966;2023-04-22T00:25:16;100035.44;;;8.51;69.09
77572;BME280;67214;47.454;18.966;2023-04-22T00:27:44;100041.09;;;8.52;69.27
77572;BME280;67214;47.454;18.966;2023-04-22T00:30:12;100027.88;;;8.52;68.80
77572;BME280;67214;47.454;18.966;2023-04-22T00:32:39;100045.16;;;8.50;69.25
77572;BME280;67214;47.454;18.966;2023-04-22T00:35:07;100037.94;;;8.47;69.60
77572;BME280;67214;47.454;18.966;2023-04-22T00:37:34;100034.31;;;8.42;69.19
77572;BME280;67214;47.454;18.966;2023-04-22T00:40:02;100035.16;;;8.43;68.99
77572;BME280;67214;47.454;18.966;2023-04-22T00:42:32;100033.70;;;8.44;69.55
77572;BME280;67214;47.454;18.966;2023-04-22T00:44:59;100032.04;;;8.43;68.93
77572;BME280;67214;47.454;18.966;2023-04-22T00:47:28;100040.81;;;8.44;69.75
77572;BME280;67214;47.454;18.966;2023-04-22T00:49:58;100022.31;;;8.44;69.68
77572;BME280;67214;47.454;18.966;2023-04-22T00:52:26;100036.85;;;8.44;69.20
77572;BME280;67214;47.454;18.966;2023-04-22T00:54:54;100039.36;;;8.45;68.99
77572;BME280;67214;47.454;18.966;2023-04-22T00:57:22;100033.16;;;8.52;68.66
77572;BME280;67214;47.454;18.966;2023-04-22T00:59:49;100015.38;;;8.54;68.59
77572;BME280;67214;47.454;18.966;2023-04-22T01:02:17;100027.64;;;8.55;68.78
77572;BME280;67214;47.454;18.966;2023-04-22T01:04:45;100024.25;;;8.53;69.52
77572;BME280;67214;47.454;18.966;2023-04-22T01:07:13;100032.18;;;8.47;69.03
77572;BME280;67214;47.454;18.966;2023-04-22T01:09:41;100035.88;;;8.45;69.20
77572;BME280;67214;47.454;18.966;2023-04-22T01:12:08;100038.64;;;8.43;69.47
77572;BME280;67214;47.454;18.966;2023-04-22T01:14:35;100030.58;;;8.39;69.97
77572;BME280;67214;47.454;18.966;2023-04-22T01:17:03;100039.69;;;8.35;70.59
77572;BME280;67214;47.454;18.966;2023-04-22T01:19:31;100040.02;;;8.30;70.82
77572;BME280;67214;47.454;18.966;2023-04-22T01:22:00;100039.47;;;8.25;71.38
77572;BME280;67214;47.454;18.966;2023-04-22T01:24:28;100035.37;;;8.21;71.24
77572;BME280;67214;47.454;18.966;2023-04-22T01:26:56;100043.25;;;8.16;71.17
77572;BME280;67214;47.454;18.966;2023-04-22T01:29:23;100041.68;;;8.13;71.58
77572;BME280;67214;47.454;18.966;2023-04-22T01:31:52;100037.80;;;8.06;72.15
77572;BME280;67214;47.454;18.966;2023-04-22T01:34:21;100044.83;;;8.00;72.30
77572;BME280;67214;47.454;18.966;2023-04-22T01:36:49;100047.08;;;7.93;72.13
77572;BME280;67214;47.454;18.966;2023-04-22T01:39:17;100045.09;;;7.84;73.33
77572;BME280;67214;47.454;18.966;2023-04-22T01:41:45;100034.00;;;7.79;73.18
77572;BME280;67214;47.454;18.966;2023-04-22T01:44:13;100050.77;;;7.73;72.93
77572;BME280;67214;47.454;18.966;2023-04-22T01:46:41;100053.13;;;7.70;73.22
77572;BME280;67214;47.454;18.966;2023-04-22T01:49:09;100050.33;;;7.66;73.32
77572;BME280;67214;47.454;18.966;2023-04-22T01:51:36;100048.23;;;7.59;73.68
77572;BME280;67214;47.454;18.966;2023-04-22T01:54:04;100048.55;;;7.54;73.65
77572;BME280;67214;47.454;18.966;2023-04-22T01:56:31;100046.98;;;7.52;74.12
77572;BME280;67214;47.454;18.966;2023-04-22T01:58:59;100052.95;;;7.48;74.36
77572;BME280;67214;47.454;18.966;2023-04-22T02:01:26;100039.98;;;7.45;74.42
77572;BME280;67214;47.454;18.966;2023-04-22T02:03:54;100049.56;;;7.46;74.60
77572;BME280;67214;47.454;18.966;2023-04-22T02:06:21;100043.81;;;7.46;74.78
77572;BME280;67214;47.454;18.966;2023-04-22T02:08:49;100042.02;;;7.47;74.54
77572;BME280;67214;47.454;18.966;2023-04-22T02:11:16;100041.87;;;7.43;74.98
77572;BME280;67214;47.454;18.966;2023-04-22T02:13:44;100043.78;;;7.41;74.96
77572;BME280;67214;47.454;18.966;2023-04-22T02:16:11;100037.28;;;7.39;75.08
77572;BME280;67214;47.454;18.966;2023-04-22T02:18:38;100023.46;;;7.36;74.86
77572;BME280;67214;47.454;18.966;2023-04-22T02:21:06;100043.63;;;7.37;74.86
77572;BME280;67214;47.454;18.966;2023-04-22T02:23:35;100040.86;;;7.38;74.88
77572;BME280;67214;47.454;18.966;2023-04-22T02:26:05;100044.98;;;7.30;74.74
77572;BME280;67214;47.454;18.966;2023-04-22T02:28:33;100041.55;;;7.22;75.12
77572;BME280;67214;47.454;18.966;2023-04-22T02:31:01;100038.88;;;7.17;75.72
77572;BME280;67214;47.454;18.966;2023-04-22T02:33:28;100046.79;;;7.17;76.08
77572;BME280;67214;47.454;18.966;2023-04-22T02:35:56;100034.55;;;7.16;75.85
77572;BME280;67214;47.454;18.966;2023-04-22T02:38:23;100040.03;;;7.13;76.06
77572;BME280;67214;47.454;18.966;2023-04-22T02:40:51;100034.92;;;7.17;75.86
77572;BME280;67214;47.454;18.966;2023-04-22T02:43:18;100038.41;;;7.17;75.77
77572;BME280;67214;47.454;18.966;2023-04-22T02:45:45;100035.64;;;7.19;75.57
77572;BME280;67214;47.454;18.966;2023-04-22T02:48:13;100038.28;;;7.19;75.44
77572;BME280;67214;47.454;18.966;2023-04-22T02:50:40;100039.66;;;7.24;75.08
77572;BME280;67214;47.454;18.966;2023-04-22T02:53:08;100035.80;;;7.23;75.20
77572;BME280;67214;47.454;18.966;2023-04-22T02:55:36;100029.34;;;7.21;75.28
77572;BME280;67214;47.454;18.966;2023-04-22T02:58:03;100033.77;;;7.21;75.81
77572;BME280;67214;47.454;18.966;2023-04-22T03:00:30;100038.44;;;7.23;75.93
77572;BME280;67214;47.454;18.966;2023-04-22T03:02:58;100031.47;;;7.22;76.27
77572;BME280;67214;47.454;18.966;2023-04-22T03:05:25;100039.03;;;7.21;76.59
77572;BME280;67214;47.454;18.966;2023-04-22T03:07:53;100032.95;;;7.26;76.32
77572;BME280;67214;47.454;18.966;2023-04-22T03:10:20;100039.70;;;7.30;76.00
77572;BME280;67214;47.454;18.966;2023-04-22T03:12:48;100039.52;;;7.33;75.98
77572;BME280;67214;47.454;18.966;2023-04-22T03:15:15;100039.20;;;7.37;75.88
77572;BME280;67214;47.454;18.966;2023-04-22T03:17:43;100035.59;;;7.38;75.73
77572;BME280;67214;47.454;18.966;2023-04-22T03:20:11;100038.50;;;7.41;75.81
77572;BME280;67214;47.454;18.966;2023-04-22T03:22:38;100037.13;;;7.48;75.73
77572;BME280;67214;47.454;18.966;2023-04-22T03:25:07;100031.84;;;7.48;75.30
77572;BME280;67214;47.454;18.966;2023-04-22T03:27:34;100046.58;;;7.45;75.19
77572;BME280;67214;47.454;18.966;2023-04-22T03:30:03;100045.29;;;7.38;75.70
77572;BME280;67214;47.454;18.966;2023-04-22T03:32:31;100049.22;;;7.32;75.91
77572;BME280;67214;47.454;18.966;2023-04-22T03:34:58;100046.05;;;7.27;75.78
77572;BME280;67214;47.454;18.966;2023-04-22T03:37:26;100037.97;;;7.23;75.86
77572;BME280;67214;47.454;18.966;2023-04-22T03:39:54;100051.25;;;7.22;75.80
77572;BME280;67214;47.454;18.966;2023-04-22T03:42:21;100057.69;;;7.18;76.07
77572;BME280;67214;47.454;18.966;2023-04-22T03:44:49;100049.52;;;7.15;76.25
77572;BME280;67214;47.454;18.966;2023-04-22T03:47:16;100057.02;;;7.09;76.48
77572;BME280;67214;47.454;18.966;2023-04-22T03:49:43;100058.73;;;7.03;76.74
77572;BME280;67214;47.454;18.966;2023-04-22T03:52:11;100054.83;;;6.95;77.13
77572;BME280;67214;47.454;18.966;2023-04-22T03:54:38;100062.10;;;6.92;77.63
77572;BME280;67214;47.454;18.966;2023-04-22T03:57:06;100062.41;;;6.87;77.65
77572;BME280;67214;47.454;18.966;2023-04-22T03:59:34;100059.02;;;6.85;77.76
77572;BME280;67214;47.454;18.966;2023-04-22T04:02:01;100056.84;;;6.85;77.78
77572;BME280;67214;47.454;18.966;2023-04-22T04:04:29;100058.28;;;6.83;77.82
77572;BME280;67214;47.454;18.966;2023-04-22T04:06:58;100059.02;;;6.85;77.94
77572;BME280;67214;47.454;18.966;2023-04-22T04:09:25;100054.70;;;6.97;77.43
77572;BME280;67214;47.454;18.966;2023-04-22T04:11:53;100058.49;;;6.93;77.26
77572;BME280;67214;47.454;18.966;2023-04-22T04:14:21;100063.42;;;6.92;77.17
77572;BME280;67214;47.454;18.966;2023-04-22T04:16:49;100061.80;;;6.96;77.01
77572;BME280;67214;47.454;18.966;2023-04-22T04:19:16;100064.22;;;6.99;76.92
77572;BME280;67214;47.454;18.966;2023-04-22T04:21:44;100071.91;;;7.03;76.89
77572;BME280;67214;47.454;18.966;2023-04-22T04:24:11;100072.77;;;7.03;77.31
77572;BME280;67214;47.454;18.966;2023-04-22T04:26:39;100072.92;;;7.07;77.40
77572;BME280;67214;47.454;18.966;2023-04-22T04:29:07;100068.76;;;7.10;77.31
77572;BME280;67214;47.454;18.966;2023-04-22T04:31:35;100074.10;;;7.16;77.33
77572;BME280;67214;47.454;18.966;2023-04-22T04:34:02;100077.12;;;7.17;77.38
77572;BME280;67214;47.454;18.966;2023-04-22T04:36:31;100079.54;;;7.20;77.40
77572;BME280;67214;47.454;18.966;2023-04-22T04:38:59;100083.02;;;7.20;77.28
77572;BME280;67214;47.454;18.966;2023-04-22T04:41:27;100086.77;;;7.23;77.17
77572;BME280;67214;47.454;18.966;2023-04-22T04:43:54;100079.77;;;7.29;76.81
77572;BME280;67214;47.454;18.966;2023-04-22T04:46:22;100090.05;;;7.39;76.29
77572;BME280;67214;47.454;18.966;2023-04-22T04:48:49;100092.00;;;7.43;76.13
77572;BME280;67214;47.454;18.966;2023-04-22T04:51:19;100080.75;;;7.46;76.13
77572;BME280;67214;47.454;18.966;2023-04-22T04:53:46;100082.70;;;7.50;76.28
77572;BME280;67214;47.454;18.966;2023-04-22T04:56:13;100088.35;;;7.51;76.24
77572;BME280;67214;47.454;18.966;2023-04-22T04:58:42;100090.30;;;7.55;76.27
77572;BME280;67214;47.454;18.966;2023-04-22T05:01:09;100093.95;;;7.59;76.63
77572;BME280;67214;47.454;18.966;2023-04-22T05:03:37;100096.36;;;7.62;76.62
77572;BME280;67214;47.454;18.966;2023-04-22T05:06:05;100090.52;;;7.64;76.31
77572;BME280;67214;47.454;18.966;2023-04-22T05:08:33;100093.56;;;7.71;76.44
77572;BME280;67214;47.454;18.966;2023-04-22T05:11:01;100098.34;;;7.78;76.27
77572;BME280;67214;47.454;18.966;2023-04-22T05:13:28;100100.75;;;7.81;75.77
77572;BME280;67214;47.454;18.966;2023-04-22T05:15:56;100103.64;;;7.84;75.61
77572;BME280;67214;47.454;18.966;2023-04-22T05:18:25;100089.65;;;7.89;75.38
77572;BME280;67214;47.454;18.966;2023-04-22T05:20:52;100098.34;;;7.97;75.13
77572;BME280;67214;47.454;18.966;2023-04-22T05:23:20;100101.66;;;8.06;74.24
77572;BME280;67214;47.454;18.966;2023-04-22T05:25:47;100097.45;;;8.21;73.85
77572;BME280;67214;47.454;18.966;2023-04-22T05:28:15;100104.44;;;8.40;73.43
77572;BME280;67214;47.454;18.966;2023-04-22T05:30:43;100097.64;;;8.73;72.28
77572;BME280;67214;47.454;18.966;2023-04-22T05:33:10;100103.72;;;8.86;71.96
77572;BME280;67214;47.454;18.966;2023-04-22T05:35:38;100100.53;;;9.05;71.59
77572;BME280;67214;47.454;18.966;2023-04-22T05:38:05;100090.84;;;9.22;71.11
77572;BME280;67214;47.454;18.966;2023-04-22T05:40:32;100104.84;;;9.35;71.06
77572;BME280;67214;47.454;18.966;2023-04-22T05:43:00;100098.97;;;9.48;70.17
77572;BME280;67214;47.454;18.966;2023-04-22T05:45:27;100095.75;;;9.61;69.43
77572;BME280;67214;47.454;18.966;2023-04-22T05:47:55;100098.15;;;9.75;68.91
77572;BME280;67214;47.454;18.966;2023-04-22T05:50:22;100100.33;;;9.93;68.21
77572;BME280;67214;47.454;18.966;2023-04-22T05:52:50;100104.56;;;10.17;67.11
77572;BME280;67214;47.454;18.966;2023-04-22T05:55:17;100106.34;;;10.39;66.13
77572;BME280;67214;47.454;18.966;2023-04-22T05:57:45;100100.38;;;10.63;65.74
77572;BME280;67214;47.454;18.966;2023-04-22T06:00:13;100102.67;;;10.89;64.94
77572;BME280;67214;47.454;18.966;2023-04-22T06:02:41;100099.67;;;11.14;64.10
77572;BME280;67214;47.454;18.966;2023-04-22T06:05:08;100097.14;;;11.33;63.48
77572;BME280;67214;47.454;18.966;2023-04-22T06:07:36;100089.07;;;11.50;62.82
77572;BME280;67214;47.454;18.966;2023-04-22T06:10:04;100101.28;;;11.68;61.67
77572;BME280;67214;47.454;18.966;2023-04-22T06:12:32;100104.87;;;11.78;62.11
77572;BME280;67214;47.454;18.966;2023-04-22T06:15:00;100108.61;;;11.90;61.65
77572;BME280;67214;47.454;18.966;2023-04-22T06:17:27;100109.88;;;12.01;60.91
77572;BME280;67214;47.454;18.966;2023-04-22T06:19:55;100112.94;;;12.06;58.17
77572;BME280;67214;47.454;18.966;2023-04-22T06:22:22;100116.70;;;12.19;58.38
77572;BME280;67214;47.454;18.966;2023-04-22T06:24:50;100113.77;;;12.37;59.42
77572;BME280;67214;47.454;18.966;2023-04-22T06:27:17;100116.22;;;12.44;59.07
77572;BME280;67214;47.454;18.966;2023-04-22T06:29:45;100117.09;;;12.54;59.47
77572;BME280;67214;47.454;18.966;2023-04-22T06:32:12;100116.05;;;12.61;59.10
77572;BME280;67214;47.454;18.966;2023-04-22T06:34:40;100110.75;;;12.80;59.41
77572;BME280;67214;47.454;18.966;2023-04-22T06:37:07;100112.16;;;12.94;59.25
77572;BME280;67214;47.454;18.966;2023-04-22T06:39:35;100112.84;;;13.11;59.37
77572;BME280;67214;47.454;18.966;2023-04-22T06:42:02;100111.28;;;13.28;58.44
77572;BME280;67214;47.454;18.966;2023-04-22T06:44:30;100104.88;;;13.44;57.63
77572;BME280;67214;47.454;18.966;2023-04-22T06:46:57;100111.44;;;13.59;57.39
77572;BME280;67214;47.454;18.966;2023-04-22T06:49:24;100105.42;;;13.80;57.11
77572;BME280;67214;47.454;18.966;2023-04-22T06:51:52;100107.77;;;13.93;57.04
77572;BME280;67214;47.454;18.966;2023-04-22T06:54:19;100115.02;;;14.14;56.63
77572;BME280;67214;47.454;18.966;2023-04-22T06:56:47;100108.37;;;14.28;55.86
77572;BME280;67214;47.454;18.966;2023-04-22T06:59:14;100104.28;;;14.47;56.10
77572;BME280;67214;47.454;18.966;2023-04-22T07:01:42;100107.30;;;14.62;56.13
77572;BME280;67214;47.454;18.966;2023-04-22T07:04:09;100102.84;;;14.84;55.08
77572;BME280;67214;47.454;18.966;2023-04-22T07:06:37;100101.77;;;15.12;54.89
77572;BME280;67214;47.454;18.966;2023-04-22T07:09:04;100110.59;;;15.26;54.89
77572;BME280;67214;47.454;18.966;2023-04-22T07:11:32;100106.85;;;15.41;55.31
77572;BME280;67214;47.454;18.966;2023-04-22T07:13:59;100103.20;;;15.60;51.72
77572;BME280;67214;47.454;18.966;2023-04-22T07:16:27;100103.17;;;15.86;47.37
77572;BME280;67214;47.454;18.966;2023-04-22T07:18:54;100106.48;;;16.05;44.73
77572;BME280;67214;47.454;18.966;2023-04-22T07:21:22;100110.75;;;16.28;43.54
77572;BME280;67214;47.454;18.966;2023-04-22T07:23:50;100104.97;;;16.49;39.87
77572;BME280;67214;47.454;18.966;2023-04-22T07:26:17;100111.59;;;16.66;37.31
77572;BME280;67214;47.454;18.966;2023-04-22T07:28:44;100114.30;;;16.79;37.77
77572;BME280;67214;47.454;18.966;2023-04-22T07:31:12;100113.47;;;16.86;39.14
77572;BME280;67214;47.454;18.966;2023-04-22T07:33:40;100115.48;;;17.00;38.37
77572;BME280;67214;47.454;18.966;2023-04-22T07:36:07;100106.80;;;17.06;38.08
77572;BME280;67214;47.454;18.966;2023-04-22T07:38:35;100103.94;;;17.20;38.24
77572;BME280;67214;47.454;18.966;2023-04-22T07:41:02;100097.58;;;17.33;37.50
77572;BME280;67214;47.454;18.966;2023-04-22T07:43:29;100101.25;;;17.44;38.06
77572;BME280;67214;47.454;18.966;2023-04-22T07:45:57;100101.44;;;17.39;38.14
77572;BME280;67214;47.454;18.966;2023-04-22T07:48:24;100101.94;;;17.42;38.34
77572;BME280;67214;47.454;18.966;2023-04-22T07:50:52;100098.91;;;17.53;36.44
77572;BME280;67214;47.454;18.966;2023-04-22T07:53:19;100103.28;;;17.67;37.91
77572;BME280;67214;47.454;18.966;2023-04-22T07:55:47;100096.05;;;17.79;36.96
77572;BME280;67214;47.454;18.966;2023-04-22T07:58:15;100101.78;;;17.68;36.45
77572;BME280;67214;47.454;18.966;2023-04-22T08:00:43;100095.53;;;17.88;36.80
77572;BME280;67214;47.454;18.966;2023-04-22T08:03:10;100097.63;;;18.13;35.85
77572;BME280;67214;47.454;18.966;2023-04-22T08:05:38;100098.10;;;18.20;35.95
77572;BME280;67214;47.454;18.966;2023-04-22T08:08:05;100092.59;;;18.09;34.68
77572;BME280;67214;47.454;18.966;2023-04-22T08:10:33;100089.92;;;18.14;36.18
77572;BME280;67214;47.454;18.966;2023-04-22T08:13:00;100094.38;;;18.29;35.25
77572;BME280;67214;47.454;18.966;2023-04-22T08:15:28;100089.95;;;18.40;34.56
77572;BME280;67214;47.454;18.966;2023-04-22T08:17:55;100101.66;;;18.47;35.28
77572;BME280;67214;47.454;18.966;2023-04-22T08:20:23;100098.78;;;18.61;34.08
77572;BME280;67214;47.454;18.966;2023-04-22T08:22:51;100102.91;;;18.72;33.88
77572;BME280;67214;47.454;18.966;2023-04-22T08:25:20;100103.36;;;18.79;33.98
77572;BME280;67214;47.454;18.966;2023-04-22T08:27:49;100094.37;;;18.95;32.24
77572;BME280;67214;47.454;18.966;2023-04-22T08:30:17;100103.86;;;19.06;33.96
77572;BME280;67214;47.454;18.966;2023-04-22T08:32:45;100101.99;;;19.29;34.42
77572;BME280;67214;47.454;18.966;2023-04-22T08:35:12;100094.30;;;19.26;34.07
77572;BME280;67214;47.454;18.966;2023-04-22T08:37:40;100099.54;;;19.23;32.97
77572;BME280;67214;47.454;18.966;2023-04-22T08:40:08;100106.41;;;19.03;34.03
77572;BME280;67214;47.454;18.966;2023-04-22T08:42:36;100104.24;;;19.21;34.63
77572;BME280;67214;47.454;18.966;2023-04-22T08:45:05;100098.56;;;19.39;34.40
77572;BME280;67214;47.454;18.966;2023-04-22T08:47:36;100096.20;;;19.36;32.70
77572;BME280;67214;47.454;18.966;2023-04-22T08:50:04;100100.23;;;19.44;32.73
77572;BME280;67214;47.454;18.966;2023-04-22T08:52:32;100105.19;;;19.70;32.16
77572;BME280;67214;47.454;18.966;2023-04-22T08:55:00;100101.13;;;19.55;31.70
77572;BME280;67214;47.454;18.966;2023-04-22T08:57:28;100100.03;;;19.45;31.13
77572;BME280;67214;47.454;18.966;2023-04-22T08:59:56;100095.89;;;19.58;33.57
77572;BME280;67214;47.454;18.966;2023-04-22T09:02:25;100091.55;;;19.71;32.82
77572;BME280;67214;47.454;18.966;2023-04-22T09:04:52;100096.14;;;19.67;32.46
77572;BME280;67214;47.454;18.966;2023-04-22T09:07:29;100094.36;;;19.92;33.44
77572;BME280;67214;47.454;18.966;2023-04-22T09:09:57;100086.84;;;20.17;33.81
77572;BME280;67214;47.454;18.966;2023-04-22T09:12:25;100097.56;;;20.36;31.71
77572;BME280;67214;47.454;18.966;2023-04-22T09:14:53;100081.47;;;20.43;32.91
77572;BME280;67214;47.454;18.966;2023-04-22T09:17:31;100093.64;;;20.53;31.05
77572;BME280;67214;47.454;18.966;2023-04-22T09:20:00;100090.73;;;20.55;30.99
77572;BME280;67214;47.454;18.966;2023-04-22T09:22:29;100094.95;;;20.43;30.40
77572;BME280;67214;47.454;18.966;2023-04-22T09:24:57;100094.72;;;20.59;30.66
77572;BME280;67214;47.454;18.966;2023-04-22T09:27:25;100094.55;;;20.71;32.83
77572;BME280;67214;47.454;18.966;2023-04-22T09:29:52;100088.98;;;20.83;32.02
77572;BME280;67214;47.454;18.966;2023-04-22T09:32:22;100092.22;;;20.93;31.29
77572;BME280;67214;47.454;18.966;2023-04-22T09:34:50;100089.97;;;20.97;31.15
77572;BME280;67214;47.454;18.966;2023-04-22T09:37:23;100085.41;;;20.97;31.41
77572;BME280;67214;47.454;18.966;2023-04-22T09:39:49;100080.98;;;20.90;32.04
77572;BME280;67214;47.454;18.966;2023-04-22T09:42:18;100072.59;;;21.31;30.77
77572;BME280;67214;47.454;18.966;2023-04-22T09:44:50;100079.06;;;21.47;31.11
77572;BME280;67214;47.454;18.966;2023-04-22T09:47:19;100074.72;;;21.63;31.49
77572;BME280;67214;47.454;18.966;2023-04-22T09:49:49;100068.19;;;21.68;30.04
77572;BME280;67214;47.454;18.966;2023-04-22T09:52:23;100066.77;;;21.90;30.87
77572;BME280;67214;47.454;18.966;2023-04-22T09:54:53;100065.72;;;21.56;32.03
77572;BME280;67214;47.454;18.966;2023-04-22T09:57:21;100056.52;;;21.33;30.85
77572;BME280;67214;47.454;18.966;2023-04-22T09:59:52;100052.12;;;21.71;30.62
77572;BME280;67214;47.454;18.966;2023-04-22T10:02:31;100048.14;;;21.95;30.11
77572;BME280;67214;47.454;18.966;2023-04-22T10:04:52;100049.84;;;22.26;30.00
77572;BME280;67214;47.454;18.966;2023-04-22T10:07:19;100044.17;;;22.38;30.01
77572;BME280;67214;47.454;18.966;2023-04-22T10:09:47;100044.69;;;22.38;29.89
77572;BME280;67214;47.454;18.966;2023-04-22T10:12:15;100039.44;;;22.16;29.41
77572;BME280;67214;47.454;18.966;2023-04-22T10:14:42;100037.28;;;21.88;30.89
77572;BME280;67214;47.454;18.966;2023-04-22T10:17:11;100043.89;;;21.68;29.42
77572;BME280;67214;47.454;18.966;2023-04-22T10:19:40;100036.91;;;22.08;29.44
77572;BME280;67214;47.454;18.966;2023-04-22T10:22:09;100034.76;;;22.45;29.47
77572;BME280;67214;47.454;18.966;2023-04-22T10:24:38;100038.45;;;22.61;30.33
77572;BME280;67214;47.454;18.966;2023-04-22T10:27:06;100036.98;;;23.02;29.33
77572;BME280;67214;47.454;18.966;2023-04-22T10:29:40;100027.94;;;23.25;28.06
77572;BME280;67214;47.454;18.966;2023-04-22T10:34:48;100032.41;;;23.61;26.77
77572;BME280;67214;47.454;18.966;2023-04-22T10:37:20;100036.20;;;22.41;30.88
77572;BME280;67214;47.454;18.966;2023-04-22T10:40:13;100036.05;;;22.25;28.79
77572;BME280;67214;47.454;18.966;2023-04-22T10:42:45;100031.23;;;22.88;31.00
77572;BME280;67214;47.454;18.966;2023-04-22T10:45:12;100028.98;;;23.18;29.48
77572;BME280;67214;47.454;18.966;2023-04-22T10:47:41;100028.77;;;23.39;26.89
77572;BME280;67214;47.454;18.966;2023-04-22T10:50:25;100025.42;;;23.37;26.89
77572;BME280;67214;47.454;18.966;2023-04-22T10:55:56;100020.78;;;23.90;27.21
77572;BME280;67214;47.454;18.966;2023-04-22T10:58:24;100017.23;;;23.14;26.77
77572;BME280;67214;47.454;18.966;2023-04-22T11:00:54;100024.47;;;22.51;28.65
77572;BME280;67214;47.454;18.966;2023-04-22T11:03:30;100017.11;;;21.84;28.80
77572;BME280;67214;47.454;18.966;2023-04-22T11:06:17;100016.60;;;21.67;29.05
77572;BME280;67214;47.454;18.966;2023-04-22T11:08:48;100020.45;;;21.03;29.86
77572;BME280;67214;47.454;18.966;2023-04-22T11:11:17;100032.50;;;20.64;29.93
77572;BME280;67214;47.454;18.966;2023-04-22T11:13:46;100027.56;;;20.57;30.74
77572;BME280;67214;47.454;18.966;2023-04-22T11:16:16;100019.94;;;20.82;30.01
77572;BME280;67214;47.454;18.966;2023-04-22T11:18:46;100016.02;;;20.84;30.48
77572;BME280;67214;47.454;18.966;2023-04-22T11:21:14;100014.21;;;20.49;29.98
77572;BME280;67214;47.454;18.966;2023-04-22T11:23:50;100016.45;;;20.67;30.13
77572;BME280;67214;47.454;18.966;2023-04-22T11:26:18;100025.63;;;20.83;31.07
77572;BME280;67214;47.454;18.966;2023-04-22T11:28:46;100016.14;;;20.98;30.04
77572;BME280;67214;47.454;18.966;2023-04-22T11:31:14;100009.19;;;20.99;30.12
77572;BME280;67214;47.454;18.966;2023-04-22T11:33:41;100023.72;;;20.77;30.11
77572;BME280;67214;47.454;18.966;2023-04-22T11:36:12;100020.84;;;20.78;31.20
77572;BME280;67214;47.454;18.966;2023-04-22T11:38:40;100020.88;;;20.64;29.96
77572;BME280;67214;47.454;18.966;2023-04-22T11:41:08;100016.03;;;20.74;30.67
77572;BME280;67214;47.454;18.966;2023-04-22T11:43:44;100016.52;;;20.84;30.69
77572;BME280;67214;47.454;18.966;2023-04-22T11:46:06;100001.25;;;20.80;32.53
77572;BME280;67214;47.454;18.966;2023-04-22T11:48:34;100018.15;;;20.78;32.05
77572;BME280;67214;47.454;18.966;2023-04-22T11:51:09;100017.20;;;20.50;32.29
77572;BME280;67214;47.454;18.966;2023-04-22T11:53:38;100016.69;;;20.29;32.18
77572;BME280;67214;47.454;18.966;2023-04-22T11:56:08;100010.91;;;20.32;32.10
77572;BME280;67214;47.454;18.966;2023-04-22T11:58:37;100018.99;;;20.32;33.30
77572;BME280;67214;47.454;18.966;2023-04-22T12:01:11;100014.53;;;20.10;32.30
77572;BME280;67214;47.454;18.966;2023-04-22T12:03:37;100020.98;;;20.20;32.27
77572;BME280;67214;47.454;18.966;2023-04-22T12:06:05;100012.91;;;20.20;32.43
77572;BME280;67214;47.454;18.966;2023-04-22T12:08:34;100014.63;;;20.42;32.30
77572;BME280;67214;47.454;18.966;2023-04-22T12:11:04;100013.00;;;20.73;31.86
77572;BME280;67214;47.454;18.966;2023-04-22T12:13:43;99998.53;;;21.51;29.64
77572;BME280;67214;47.454;18.966;2023-04-22T12:16:04;100000.66;;;22.50;29.22
77572;BME280;67214;47.454;18.966;2023-04-22T12:18:37;99992.00;;;23.27;29.31
77572;BME280;67214;47.454;18.966;2023-04-22T12:21:09;99985.99;;;23.87;27.32
77572;BME280;67214;47.454;18.966;2023-04-22T12:23:52;99993.07;;;24.61;26.17
77572;BME280;67214;47.454;18.966;2023-04-22T12:26:21;99989.45;;;24.07;27.09
77572;BME280;67214;47.454;18.966;2023-04-22T12:28:50;99992.77;;;24.09;27.19
77572;BME280;67214;47.454;18.966;2023-04-22T12:31:17;99996.56;;;24.52;28.18
77572;BME280;67214;47.454;18.966;2023-04-22T12:33:45;99987.27;;;24.89;26.66
77572;BME280;67214;47.454;18.966;2023-04-22T12:36:13;99988.92;;;25.49;26.60
77572;BME280;67214;47.454;18.966;2023-04-22T12:38:40;99987.71;;;25.87;25.13
77572;BME280;67214;47.454;18.966;2023-04-22T12:41:08;99983.14;;;26.09;26.58
77572;BME280;67214;47.454;18.966;2023-04-22T12:43:36;99978.72;;;25.87;25.23
77572;BME280;67214;47.454;18.966;2023-04-22T12:46:06;99974.50;;;26.00;24.42
77572;BME280;67214;47.454;18.966;2023-04-22T12:48:34;99971.02;;;25.32;26.12
77572;BME280;67214;47.454;18.966;2023-04-22T12:51:04;99977.88;;;25.77;25.52
77572;BME280;67214;47.454;18.966;2023-04-22T12:53:32;99965.38;;;25.33;25.55
77572;BME280;67214;47.454;18.966;2023-04-22T12:55:59;99962.11;;;25.86;25.85